sensor_id;sensor_type;location;lat;lon;timestamp;P1;durP1;ratioP1;P2;durP2;ratioP2
60851;SDS011;48553;50.766;2.900;2022-09-29T00:02:47;4.28;;;2.38;;
60851;SDS011;48553;50.766;2.900;2022-09-29T00:05:51;5.10;;;2.50;;
60851;SDS011;48553;50.766;2.900;2022-09-29T00:08:53;4.10;;;2.60;;
60851;SDS011;48553;50.766;2.900;2022-09-29T00:11:54;4.07;;;2.60;;
60851;SDS011;48553;50.766;2.900;2022-09-29T00:14:55;4.35;;;2.45;;
60851;SDS011;48553;50.766;2.900;2022-09-29T00:17:55;5.60;;;2.60;;
60851;SDS011;48553;50.766;2.900;2022-09-29T00:21:00;5.88;;;2.80;;
60851;SDS011;48553;50.766;2.900;2022-09-29T00:24:02;4.75;;;2.90;;
60851;SDS011;48553;50.766;2.900;2022-09-29T00:27:02;4.22;;;2.78;;
60851;SDS011;48553;50.766;2.900;2022-09-29T00:30:03;5.05;;;2.70;;
60851;SDS011;48553;50.766;2.900;2022-09-29T00:33:04;5.03;;;3.05;;
60851;SDS011;48553;50.766;2.900;2022-09-29T00:36:06;4.90;;;2.92;;
60851;SDS011;48553;50.766;2.900;2022-09-29T00:39:09;5.80;;;2.87;;
60851;SDS011;48553;50.766;2.900;2022-09-29T00:42:10;5.18;;;2.80;;
60851;SDS011;48553;50.766;2.900;2022-09-29T00:45:21;6.30;;;2.95;;
60851;SDS011;48553;50.766;2.900;2022-09-29T00:48:26;5.15;;;2.80;;
60851;SDS011;48553;50.766;2.900;2022-09-29T00:51:31;5.10;;;3.10;;
60851;SDS011;48553;50.766;2.900;2022-09-29T00:54:36;5.72;;;2.92;;
60851;SDS011;48553;50.766;2.900;2022-09-29T00:57:48;5.50;;;2.97;;
60851;SDS011;48553;50.766;2.900;2022-09-29T01:00:54;6.63;;;3.10;;
60851;SDS011;48553;50.766;2.900;2022-09-29T01:03:55;6.38;;;3.05;;
60851;SDS011;48553;50.766;2.900;2022-09-29T01:07:01;6.13;;;3.13;;
60851;SDS011;48553;50.766;2.900;2022-09-29T01:10:01;5.25;;;3.15;;
60851;SDS011;48553;50.766;2.900;2022-09-29T01:13:03;6.20;;;3.03;;
60851;SDS011;48553;50.766;2.900;2022-09-29T01:16:03;7.50;;;3.17;;
60851;SDS011;48553;50.766;2.900;2022-09-29T01:39:58;6.57;;;3.17;;
60851;SDS011;48553;50.766;2.900;2022-09-29T01:43:07;7.20;;;3.17;;
60851;SDS011;48553;50.766;2.900;2022-09-29T01:46:15;5.05;;;2.97;;
60851;SDS011;48553;50.766;2.900;2022-09-29T01:49:22;5.75;;;3.15;;
60851;SDS011;48553;50.766;2.900;2022-09-29T01:55:30;5.00;;;3.10;;
60851;SDS011;48553;50.766;2.900;2022-09-29T01:58:39;6.28;;;3.17;;
60851;SDS011;48553;50.766;2.900;2022-09-29T02:01:49;5.15;;;2.97;;
60851;SDS011;48553;50.766;2.900;2022-09-29T02:04:54;5.28;;;2.78;;
60851;SDS011;48553;50.766;2.900;2022-09-29T02:08:01;4.97;;;3.08;;
60851;SDS011;48553;50.766;2.900;2022-09-29T02:11:10;6.47;;;3.35;;
60851;SDS011;48553;50.766;2.900;2022-09-29T02:14:13;4.93;;;2.78;;
60851;SDS011;48553;50.766;2.900;2022-09-29T02:17:40;5.15;;;3.00;;
60851;SDS011;48553;50.766;2.900;2022-09-29T02:20:42;5.97;;;2.95;;
60851;SDS011;48553;50.766;2.900;2022-09-29T02:23:43;5.60;;;3.17;;
60851;SDS011;48553;50.766;2.900;2022-09-29T02:26:43;5.47;;;2.92;;
60851;SDS011;48553;50.766;2.900;2022-09-29T02:29:44;5.82;;;3.10;;
60851;SDS011;48553;50.766;2.900;2022-09-29T02:32:46;6.53;;;3.17;;
60851;SDS011;48553;50.766;2.900;2022-09-29T02:42:24;4.78;;;2.95;;
60851;SDS011;48553;50.766;2.900;2022-09-29T02:51:54;4.90;;;2.90;;
60851;SDS011;48553;50.766;2.900;2022-09-29T02:58:35;4.78;;;2.63;;
60851;SDS011;48553;50.766;2.900;2022-09-29T03:01:51;5.40;;;2.72;;
60851;SDS011;48553;50.766;2.900;2022-09-29T03:04:56;4.60;;;2.63;;
60851;SDS011;48553;50.766;2.900;2022-09-29T03:07:56;4.43;;;2.80;;
60851;SDS011;48553;50.766;2.900;2022-09-29T03:10:57;6.22;;;3.00;;
60851;SDS011;48553;50.766;2.900;2022-09-29T03:13:58;4.60;;;2.60;;
60851;SDS011;48553;50.766;2.900;2022-09-29T03:16:59;4.18;;;2.60;;
60851;SDS011;48553;50.766;2.900;2022-09-29T03:19:59;4.50;;;2.65;;
60851;SDS011;48553;50.766;2.900;2022-09-29T03:23:00;4.53;;;2.67;;
60851;SDS011;48553;50.766;2.900;2022-09-29T03:26:00;5.80;;;2.80;;
60851;SDS011;48553;50.766;2.900;2022-09-29T03:29:01;5.55;;;2.90;;
60851;SDS011;48553;50.766;2.900;2022-09-29T03:32:02;4.53;;;2.80;;
60851;SDS011;48553;50.766;2.900;2022-09-29T03:35:03;5.70;;;2.90;;
60851;SDS011;48553;50.766;2.900;2022-09-29T03:38:04;5.57;;;3.03;;
60851;SDS011;48553;50.766;2.900;2022-09-29T03:41:05;5.22;;;2.88;;
60851;SDS011;48553;50.766;2.900;2022-09-29T03:44:06;4.97;;;2.78;;
60851;SDS011;48553;50.766;2.900;2022-09-29T03:47:07;5.57;;;2.88;;
60851;SDS011;48553;50.766;2.900;2022-09-29T03:50:07;4.82;;;3.00;;
60851;SDS011;48553;50.766;2.900;2022-09-29T03:53:08;7.07;;;3.40;;
60851;SDS011;48553;50.766;2.900;2022-09-29T03:56:08;5.38;;;3.33;;
60851;SDS011;48553;50.766;2.900;2022-09-29T03:59:09;7.88;;;3.22;;
60851;SDS011;48553;50.766;2.900;2022-09-29T04:02:11;6.13;;;3.53;;
60851;SDS011;48553;50.766;2.900;2022-09-29T04:05:12;6.15;;;3.33;;
60851;SDS011;48553;50.766;2.900;2022-09-29T04:08:12;9.13;;;3.83;;
60851;SDS011;48553;50.766;2.900;2022-09-29T04:11:13;5.50;;;3.38;;
60851;SDS011;48553;50.766;2.900;2022-09-29T04:14:14;6.55;;;3.70;;
60851;SDS011;48553;50.766;2.900;2022-09-29T04:17:14;5.57;;;3.45;;
60851;SDS011;48553;50.766;2.900;2022-09-29T04:20:15;6.03;;;3.25;;
60851;SDS011;48553;50.766;2.900;2022-09-29T04:23:16;6.13;;;3.42;;
60851;SDS011;48553;50.766;2.900;2022-09-29T04:26:17;6.45;;;3.45;;
60851;SDS011;48553;50.766;2.900;2022-09-29T04:29:19;5.35;;;3.35;;
60851;SDS011;48553;50.766;2.900;2022-09-29T04:32:20;6.38;;;3.50;;
60851;SDS011;48553;50.766;2.900;2022-09-29T04:35:20;7.13;;;3.90;;
60851;SDS011;48553;50.766;2.900;2022-09-29T04:38:20;7.15;;;3.90;;
60851;SDS011;48553;50.766;2.900;2022-09-29T04:41:21;6.50;;;4.22;;
60851;SDS011;48553;50.766;2.900;2022-09-29T04:44:21;5.95;;;3.70;;
60851;SDS011;48553;50.766;2.900;2022-09-29T04:47:23;6.55;;;4.07;;
60851;SDS011;48553;50.766;2.900;2022-09-29T04:50:24;6.80;;;3.97;;
60851;SDS011;48553;50.766;2.900;2022-09-29T04:53:25;7.03;;;4.05;;
60851;SDS011;48553;50.766;2.900;2022-09-29T04:56:25;6.65;;;4.05;;
60851;SDS011;48553;50.766;2.900;2022-09-29T04:59:30;8.55;;;4.50;;
60851;SDS011;48553;50.766;2.900;2022-09-29T05:02:31;6.55;;;4.30;;
60851;SDS011;48553;50.766;2.900;2022-09-29T05:05:32;6.35;;;4.25;;
60851;SDS011;48553;50.766;2.900;2022-09-29T05:08:32;7.32;;;4.20;;
60851;SDS011;48553;50.766;2.900;2022-09-29T05:11:33;8.13;;;4.20;;
60851;SDS011;48553;50.766;2.900;2022-09-29T05:14:34;8.50;;;4.35;;
60851;SDS011;48553;50.766;2.900;2022-09-29T05:17:34;7.60;;;4.32;;
60851;SDS011;48553;50.766;2.900;2022-09-29T05:20:35;8.43;;;4.10;;
60851;SDS011;48553;50.766;2.900;2022-09-29T05:23:35;7.82;;;4.35;;
60851;SDS011;48553;50.766;2.900;2022-09-29T05:26:36;7.82;;;4.22;;
60851;SDS011;48553;50.766;2.900;2022-09-29T05:29:36;7.72;;;4.10;;
60851;SDS011;48553;50.766;2.900;2022-09-29T05:32:36;7.85;;;4.10;;
60851;SDS011;48553;50.766;2.900;2022-09-29T05:35:37;7.50;;;4.53;;
60851;SDS011;48553;50.766;2.900;2022-09-29T05:38:38;5.90;;;4.40;;
60851;SDS011;48553;50.766;2.900;2022-09-29T05:41:40;8.38;;;4.80;;
60851;SDS011;48553;50.766;2.900;2022-09-29T05:44:41;9.38;;;4.90;;
60851;SDS011;48553;50.766;2.900;2022-09-29T05:47:41;12.80;;;4.85;;
60851;SDS011;48553;50.766;2.900;2022-09-29T05:50:43;8.85;;;5.45;;
60851;SDS011;48553;50.766;2.900;2022-09-29T05:53:44;8.02;;;5.38;;
60851;SDS011;48553;50.766;2.900;2022-09-29T05:56:45;10.98;;;5.88;;
60851;SDS011;48553;50.766;2.900;2022-09-29T05:59:46;9.23;;;5.43;;
60851;SDS011;48553;50.766;2.900;2022-09-29T06:02:46;9.55;;;6.10;;
60851;SDS011;48553;50.766;2.900;2022-09-29T06:05:47;10.90;;;5.85;;
60851;SDS011;48553;50.766;2.900;2022-09-29T06:08:47;10.43;;;6.18;;
60851;SDS011;48553;50.766;2.900;2022-09-29T06:11:48;10.63;;;6.50;;
60851;SDS011;48553;50.766;2.900;2022-09-29T06:14:49;10.40;;;5.90;;
60851;SDS011;48553;50.766;2.900;2022-09-29T06:17:56;9.80;;;5.95;;
60851;SDS011;48553;50.766;2.900;2022-09-29T06:21:04;10.10;;;6.03;;
60851;SDS011;48553;50.766;2.900;2022-09-29T06:24:09;10.93;;;5.93;;
60851;SDS011;48553;50.766;2.900;2022-09-29T06:27:10;10.43;;;6.25;;
60851;SDS011;48553;50.766;2.900;2022-09-29T06:30:10;9.85;;;5.60;;
60851;SDS011;48553;50.766;2.900;2022-09-29T06:33:12;8.95;;;5.80;;
60851;SDS011;48553;50.766;2.900;2022-09-29T06:36:26;8.82;;;5.43;;
60851;SDS011;48553;50.766;2.900;2022-09-29T06:39:54;9.85;;;5.80;;
60851;SDS011;48553;50.766;2.900;2022-09-29T06:42:54;8.52;;;5.50;;
60851;SDS011;48553;50.766;2.900;2022-09-29T06:45:55;9.70;;;6.10;;
60851;SDS011;48553;50.766;2.900;2022-09-29T06:48:55;9.18;;;6.07;;
60851;SDS011;48553;50.766;2.900;2022-09-29T06:51:56;11.55;;;6.05;;
60851;SDS011;48553;50.766;2.900;2022-09-29T06:54:56;9.27;;;5.40;;
60851;SDS011;48553;50.766;2.900;2022-09-29T06:57:57;9.02;;;5.88;;
60851;SDS011;48553;50.766;2.900;2022-09-29T07:01:00;10.05;;;5.90;;
60851;SDS011;48553;50.766;2.900;2022-09-29T07:04:02;8.88;;;5.80;;
60851;SDS011;48553;50.766;2.900;2022-09-29T07:07:02;9.77;;;5.90;;
60851;SDS011;48553;50.766;2.900;2022-09-29T07:10:03;10.02;;;5.43;;
60851;SDS011;48553;50.766;2.900;2022-09-29T07:13:04;9.40;;;5.70;;
60851;SDS011;48553;50.766;2.900;2022-09-29T07:19:09;9.40;;;5.60;;
60851;SDS011;48553;50.766;2.900;2022-09-29T07:22:10;9.05;;;5.22;;
60851;SDS011;48553;50.766;2.900;2022-09-29T07:25:10;8.23;;;5.10;;
60851;SDS011;48553;50.766;2.900;2022-09-29T07:28:11;8.98;;;5.53;;
60851;SDS011;48553;50.766;2.900;2022-09-29T07:31:15;8.70;;;5.28;;
60851;SDS011;48553;50.766;2.900;2022-09-29T07:34:18;9.25;;;4.85;;
60851;SDS011;48553;50.766;2.900;2022-09-29T07:37:19;7.18;;;4.55;;
60851;SDS011;48553;50.766;2.900;2022-09-29T07:40:21;9.52;;;5.07;;
60851;SDS011;48553;50.766;2.900;2022-09-29T07:43:22;6.40;;;4.55;;
60851;SDS011;48553;50.766;2.900;2022-09-29T07:46:22;9.30;;;4.70;;
60851;SDS011;48553;50.766;2.900;2022-09-29T07:49:23;8.27;;;4.57;;
60851;SDS011;48553;50.766;2.900;2022-09-29T07:52:23;7.82;;;4.95;;
60851;SDS011;48553;50.766;2.900;2022-09-29T07:55:23;8.32;;;4.68;;
60851;SDS011;48553;50.766;2.900;2022-09-29T07:58:26;8.35;;;4.60;;
60851;SDS011;48553;50.766;2.900;2022-09-29T08:01:26;7.20;;;4.55;;
60851;SDS011;48553;50.766;2.900;2022-09-29T08:04:28;8.23;;;4.65;;
60851;SDS011;48553;50.766;2.900;2022-09-29T08:07:28;8.63;;;4.63;;
60851;SDS011;48553;50.766;2.900;2022-09-29T08:10:29;9.48;;;4.18;;
60851;SDS011;48553;50.766;2.900;2022-09-29T08:13:31;8.27;;;4.47;;
60851;SDS011;48553;50.766;2.900;2022-09-29T08:16:32;7.22;;;4.03;;
60851;SDS011;48553;50.766;2.900;2022-09-29T08:19:33;9.10;;;4.13;;
60851;SDS011;48553;50.766;2.900;2022-09-29T08:22:34;7.30;;;3.97;;
60851;SDS011;48553;50.766;2.900;2022-09-29T08:25:34;6.22;;;3.85;;
60851;SDS011;48553;50.766;2.900;2022-09-29T08:28:36;7.43;;;4.07;;
60851;SDS011;48553;50.766;2.900;2022-09-29T08:31:38;8.15;;;4.25;;
60851;SDS011;48553;50.766;2.900;2022-09-29T08:34:39;6.55;;;3.78;;
60851;SDS011;48553;50.766;2.900;2022-09-29T08:37:39;5.68;;;3.55;;
60851;SDS011;48553;50.766;2.900;2022-09-29T08:40:39;7.53;;;3.92;;
60851;SDS011;48553;50.766;2.900;2022-09-29T08:43:40;5.72;;;3.70;;
60851;SDS011;48553;50.766;2.900;2022-09-29T08:46:47;6.43;;;3.30;;
60851;SDS011;48553;50.766;2.900;2022-09-29T08:49:57;5.30;;;3.08;;
60851;SDS011;48553;50.766;2.900;2022-09-29T08:53:08;5.75;;;3.20;;
60851;SDS011;48553;50.766;2.900;2022-09-29T08:56:15;6.88;;;3.50;;
60851;SDS011;48553;50.766;2.900;2022-09-29T08:59:17;5.45;;;3.25;;
60851;SDS011;48553;50.766;2.900;2022-09-29T09:15:26;5.05;;;2.55;;
60851;SDS011;48553;50.766;2.900;2022-09-29T09:21:50;4.05;;;2.45;;
60851;SDS011;48553;50.766;2.900;2022-09-29T09:24:57;4.35;;;2.35;;
60851;SDS011;48553;50.766;2.900;2022-09-29T09:28:05;4.40;;;2.63;;
60851;SDS011;48553;50.766;2.900;2022-09-29T09:31:19;4.22;;;2.20;;
60851;SDS011;48553;50.766;2.900;2022-09-29T09:34:27;5.25;;;2.35;;
60851;SDS011;48553;50.766;2.900;2022-09-29T09:37:35;4.00;;;2.30;;
60851;SDS011;48553;50.766;2.900;2022-09-29T09:40:42;3.92;;;2.00;;
60851;SDS011;48553;50.766;2.900;2022-09-29T09:43:47;5.30;;;2.10;;
60851;SDS011;48553;50.766;2.900;2022-09-29T09:46:52;4.45;;;2.13;;
60851;SDS011;48553;50.766;2.900;2022-09-29T09:49:59;3.67;;;1.90;;
60851;SDS011;48553;50.766;2.900;2022-09-29T09:53:03;3.17;;;1.88;;
60851;SDS011;48553;50.766;2.900;2022-09-29T09:56:17;3.80;;;1.60;;
60851;SDS011;48553;50.766;2.900;2022-09-29T09:59:46;3.35;;;1.48;;
60851;SDS011;48553;50.766;2.900;2022-09-29T10:03:01;2.88;;;1.48;;
60851;SDS011;48553;50.766;2.900;2022-09-29T10:06:05;2.40;;;1.30;;
60851;SDS011;48553;50.766;2.900;2022-09-29T10:09:13;3.03;;;1.20;;
60851;SDS011;48553;50.766;2.900;2022-09-29T10:12:18;3.08;;;1.00;;
60851;SDS011;48553;50.766;2.900;2022-09-29T10:15:24;3.45;;;1.05;;
60851;SDS011;48553;50.766;2.900;2022-09-29T10:18:34;2.42;;;1.10;;
60851;SDS011;48553;50.766;2.900;2022-09-29T10:21:42;1.70;;;1.10;;
60851;SDS011;48553;50.766;2.900;2022-09-29T10:24:43;3.65;;;1.10;;
60851;SDS011;48553;50.766;2.900;2022-09-29T10:27:44;1.92;;;1.20;;
60851;SDS011;48553;50.766;2.900;2022-09-29T10:30:48;1.85;;;1.00;;
60851;SDS011;48553;50.766;2.900;2022-09-29T10:33:50;1.80;;;1.10;;
60851;SDS011;48553;50.766;2.900;2022-09-29T10:43:21;1.98;;;1.05;;
60851;SDS011;48553;50.766;2.900;2022-09-29T10:49:45;2.20;;;1.10;;
60851;SDS011;48553;50.766;2.900;2022-09-29T10:52:52;2.00;;;1.10;;
60851;SDS011;48553;50.766;2.900;2022-09-29T10:55:55;2.25;;;1.10;;
60851;SDS011;48553;50.766;2.900;2022-09-29T10:58:57;2.45;;;0.90;;
60851;SDS011;48553;50.766;2.900;2022-09-29T11:02:00;1.73;;;0.93;;
60851;SDS011;48553;50.766;2.900;2022-09-29T11:05:02;2.30;;;1.05;;
60851;SDS011;48553;50.766;2.900;2022-09-29T11:08:14;2.20;;;1.10;;
60851;SDS011;48553;50.766;2.900;2022-09-29T11:11:20;1.80;;;0.90;;
60851;SDS011;48553;50.766;2.900;2022-09-29T11:14:25;1.42;;;1.10;;
60851;SDS011;48553;50.766;2.900;2022-09-29T11:17:36;2.15;;;0.85;;
60851;SDS011;48553;50.766;2.900;2022-09-29T11:20:37;1.95;;;1.10;;
60851;SDS011;48553;50.766;2.900;2022-09-29T11:23:46;1.58;;;0.85;;
60851;SDS011;48553;50.766;2.900;2022-09-29T11:27:16;2.10;;;0.90;;
60851;SDS011;48553;50.766;2.900;2022-09-29T11:30:23;2.42;;;0.90;;
60851;SDS011;48553;50.766;2.900;2022-09-29T11:40:26;1.83;;;1.00;;
60851;SDS011;48553;50.766;2.900;2022-09-29T11:43:52;1.80;;;0.80;;
60851;SDS011;48553;50.766;2.900;2022-09-29T11:50:21;1.30;;;0.85;;
60851;SDS011;48553;50.766;2.900;2022-09-29T12:00:05;1.63;;;0.93;;
60851;SDS011;48553;50.766;2.900;2022-09-29T12:03:20;1.77;;;1.00;;
60851;SDS011;48553;50.766;2.900;2022-09-29T12:17:03;2.30;;;0.80;;
60851;SDS011;48553;50.766;2.900;2022-09-29T12:20:17;2.33;;;0.80;;
60851;SDS011;48553;50.766;2.900;2022-09-29T12:23:23;1.77;;;0.73;;
60851;SDS011;48553;50.766;2.900;2022-09-29T12:26:27;1.40;;;0.90;;
60851;SDS011;48553;50.766;2.900;2022-09-29T12:29:34;2.60;;;0.90;;
60851;SDS011;48553;50.766;2.900;2022-09-29T12:32:39;3.10;;;1.10;;
60851;SDS011;48553;50.766;2.900;2022-09-29T12:36:06;1.77;;;0.95;;
60851;SDS011;48553;50.766;2.900;2022-09-29T12:42:58;1.63;;;1.17;;
60851;SDS011;48553;50.766;2.900;2022-09-29T12:46:22;2.20;;;0.98;;
60851;SDS011;48553;50.766;2.900;2022-09-29T12:56:57;1.77;;;0.90;;
60851;SDS011;48553;50.766;2.900;2022-09-29T13:00:05;2.00;;;1.50;;
60851;SDS011;48553;50.766;2.900;2022-09-29T13:09:53;1.70;;;0.70;;
60851;SDS011;48553;50.766;2.900;2022-09-29T13:14:23;4.63;;;0.90;;
60851;SDS011;48553;50.766;2.900;2022-09-29T13:17:23;0.95;;;0.65;;
60851;SDS011;48553;50.766;2.900;2022-09-29T13:30:32;3.15;;;1.10;;
60851;SDS011;48553;50.766;2.900;2022-09-29T13:33:35;1.95;;;1.00;;
60851;SDS011;48553;50.766;2.900;2022-09-29T13:36:37;2.08;;;0.90;;
60851;SDS011;48553;50.766;2.900;2022-09-29T13:40:04;1.90;;;1.08;;
60851;SDS011;48553;50.766;2.900;2022-09-29T13:43:16;1.50;;;0.95;;
60851;SDS011;48553;50.766;2.900;2022-09-29T13:47:09;1.80;;;0.90;;
60851;SDS011;48553;50.766;2.900;2022-09-29T13:53:42;2.72;;;1.13;;
60851;SDS011;48553;50.766;2.900;2022-09-29T13:56:42;1.80;;;1.20;;
60851;SDS011;48553;50.766;2.900;2022-09-29T14:03:01;1.80;;;1.08;;
60851;SDS011;48553;50.766;2.900;2022-09-29T14:06:17;3.30;;;1.20;;
60851;SDS011;48553;50.766;2.900;2022-09-29T14:09:19;1.77;;;1.10;;
60851;SDS011;48553;50.766;2.900;2022-09-29T14:12:22;2.10;;;1.20;;
60851;SDS011;48553;50.766;2.900;2022-09-29T14:15:27;2.42;;;1.15;;
60851;SDS011;48553;50.766;2.900;2022-09-29T14:18:45;2.13;;;1.23;;
60851;SDS011;48553;50.766;2.900;2022-09-29T14:21:53;2.55;;;1.40;;
60851;SDS011;48553;50.766;2.900;2022-09-29T14:31:17;3.40;;;1.50;;
60851;SDS011;48553;50.766;2.900;2022-09-29T14:34:21;3.10;;;1.40;;
60851;SDS011;48553;50.766;2.900;2022-09-29T14:37:25;3.20;;;1.52;;
60851;SDS011;48553;50.766;2.900;2022-09-29T14:40:26;4.28;;;1.40;;
60851;SDS011;48553;50.766;2.900;2022-09-29T14:43:40;2.03;;;1.20;;
60851;SDS011;48553;50.766;2.900;2022-09-29T14:53:57;2.20;;;1.02;;
60851;SDS011;48553;50.766;2.900;2022-09-29T14:57:19;1.92;;;1.05;;
60851;SDS011;48553;50.766;2.900;2022-09-29T15:00:35;2.28;;;1.00;;
60851;SDS011;48553;50.766;2.900;2022-09-29T15:03:50;1.85;;;0.80;;
60851;SDS011;48553;50.766;2.900;2022-09-29T15:06:52;3.28;;;2.00;;
60851;SDS011;48553;50.766;2.900;2022-09-29T15:09:53;2.08;;;1.08;;
60851;SDS011;48553;50.766;2.900;2022-09-29T15:16:20;3.33;;;1.67;;
60851;SDS011;48553;50.766;2.900;2022-09-29T15:26:12;2.60;;;1.35;;
60851;SDS011;48553;50.766;2.900;2022-09-29T15:29:14;3.30;;;1.63;;
60851;SDS011;48553;50.766;2.900;2022-09-29T15:32:19;2.03;;;0.80;;
60851;SDS011;48553;50.766;2.900;2022-09-29T15:35:21;2.25;;;0.93;;
60851;SDS011;48553;50.766;2.900;2022-09-29T15:41:24;2.33;;;1.40;;
60851;SDS011;48553;50.766;2.900;2022-09-29T15:44:26;2.13;;;1.30;;
60851;SDS011;48553;50.766;2.900;2022-09-29T15:47:36;3.57;;;1.37;;
60851;SDS011;48553;50.766;2.900;2022-09-29T15:50:42;2.67;;;1.50;;
60851;SDS011;48553;50.766;2.900;2022-09-29T15:53:42;2.22;;;1.20;;
60851;SDS011;48553;50.766;2.900;2022-09-29T15:56:45;2.78;;;1.20;;
60851;SDS011;48553;50.766;2.900;2022-09-29T16:00:05;2.05;;;1.10;;
60851;SDS011;48553;50.766;2.900;2022-09-29T16:03:42;3.25;;;1.35;;
60851;SDS011;48553;50.766;2.900;2022-09-29T16:06:50;3.55;;;1.33;;
60851;SDS011;48553;50.766;2.900;2022-09-29T16:09:51;3.13;;;1.20;;
60851;SDS011;48553;50.766;2.900;2022-09-29T16:12:52;2.25;;;1.17;;
60851;SDS011;48553;50.766;2.900;2022-09-29T16:15:56;2.03;;;1.20;;
60851;SDS011;48553;50.766;2.900;2022-09-29T16:18:59;4.28;;;1.20;;
60851;SDS011;48553;50.766;2.900;2022-09-29T16:22:06;2.03;;;1.02;;
60851;SDS011;48553;50.766;2.900;2022-09-29T16:25:08;3.65;;;1.40;;
60851;SDS011;48553;50.766;2.900;2022-09-29T16:28:24;3.22;;;1.27;;
60851;SDS011;48553;50.766;2.900;2022-09-29T16:31:26;3.10;;;1.40;;
60851;SDS011;48553;50.766;2.900;2022-09-29T16:34:30;1.55;;;1.05;;
60851;SDS011;48553;50.766;2.900;2022-09-29T16:37:31;4.57;;;1.42;;
60851;SDS011;48553;50.766;2.900;2022-09-29T16:40:32;3.30;;;1.23;;
60851;SDS011;48553;50.766;2.900;2022-09-29T16:43:32;3.67;;;1.65;;
60851;SDS011;48553;50.766;2.900;2022-09-29T16:46:33;3.00;;;1.98;;
60851;SDS011;48553;50.766;2.900;2022-09-29T16:49:46;2.90;;;1.88;;
60851;SDS011;48553;50.766;2.900;2022-09-29T16:52:48;4.15;;;1.70;;
60851;SDS011;48553;50.766;2.900;2022-09-29T16:55:59;3.55;;;1.80;;
60851;SDS011;48553;50.766;2.900;2022-09-29T16:59:07;3.67;;;1.70;;
60851;SDS011;48553;50.766;2.900;2022-09-29T17:02:11;2.95;;;1.90;;
60851;SDS011;48553;50.766;2.900;2022-09-29T17:05:12;3.10;;;2.00;;
60851;SDS011;48553;50.766;2.900;2022-09-29T17:08:14;3.65;;;2.08;;
60851;SDS011;48553;50.766;2.900;2022-09-29T17:11:23;3.72;;;1.90;;
60851;SDS011;48553;50.766;2.900;2022-09-29T17:14:23;2.90;;;1.85;;
60851;SDS011;48553;50.766;2.900;2022-09-29T17:17:25;3.05;;;1.73;;
60851;SDS011;48553;50.766;2.900;2022-09-29T17:20:27;2.60;;;1.80;;
60851;SDS011;48553;50.766;2.900;2022-09-29T17:23:30;3.42;;;1.85;;
60851;SDS011;48553;50.766;2.900;2022-09-29T17:29:55;2.42;;;1.73;;
60851;SDS011;48553;50.766;2.900;2022-09-29T17:32:56;2.97;;;1.90;;
60851;SDS011;48553;50.766;2.900;2022-09-29T17:35:57;2.50;;;1.70;;
60851;SDS011;48553;50.766;2.900;2022-09-29T17:38:58;2.63;;;1.95;;
60851;SDS011;48553;50.766;2.900;2022-09-29T17:42:00;5.07;;;1.85;;
60851;SDS011;48553;50.766;2.900;2022-09-29T17:45:00;3.28;;;2.00;;
60851;SDS011;48553;50.766;2.900;2022-09-29T17:48:03;3.33;;;2.10;;
60851;SDS011;48553;50.766;2.900;2022-09-29T17:51:05;4.93;;;2.20;;
60851;SDS011;48553;50.766;2.900;2022-09-29T17:57:16;3.65;;;2.40;;
60851;SDS011;48553;50.766;2.900;2022-09-29T18:00:24;3.67;;;2.33;;
60851;SDS011;48553;50.766;2.900;2022-09-29T18:03:30;2.95;;;2.13;;
60851;SDS011;48553;50.766;2.900;2022-09-29T18:06:33;3.60;;;2.33;;
60851;SDS011;48553;50.766;2.900;2022-09-29T18:09:37;3.88;;;2.10;;
60851;SDS011;48553;50.766;2.900;2022-09-29T18:12:40;3.45;;;2.30;;
60851;SDS011;48553;50.766;2.900;2022-09-29T18:15:41;4.75;;;2.30;;
60851;SDS011;48553;50.766;2.900;2022-09-29T18:18:43;4.00;;;2.50;;
60851;SDS011;48553;50.766;2.900;2022-09-29T18:21:44;5.28;;;2.63;;
60851;SDS011;48553;50.766;2.900;2022-09-29T18:24:45;4.80;;;2.42;;
60851;SDS011;48553;50.766;2.900;2022-09-29T18:27:46;4.43;;;2.42;;
60851;SDS011;48553;50.766;2.900;2022-09-29T18:30:48;3.25;;;2.28;;
60851;SDS011;48553;50.766;2.900;2022-09-29T18:33:51;4.63;;;2.30;;
60851;SDS011;48553;50.766;2.900;2022-09-29T18:36:51;4.97;;;2.58;;
60851;SDS011;48553;50.766;2.900;2022-09-29T18:39:52;4.05;;;2.70;;
60851;SDS011;48553;50.766;2.900;2022-09-29T18:42:52;5.63;;;2.70;;
60851;SDS011;48553;50.766;2.900;2022-09-29T18:45:56;4.00;;;2.60;;
60851;SDS011;48553;50.766;2.900;2022-09-29T18:48:57;5.35;;;2.40;;
60851;SDS011;48553;50.766;2.900;2022-09-29T18:51:58;4.75;;;2.90;;
60851;SDS011;48553;50.766;2.900;2022-09-29T18:54:59;4.30;;;2.67;;
60851;SDS011;48553;50.766;2.900;2022-09-29T18:57:59;6.53;;;2.97;;
60851;SDS011;48553;50.766;2.900;2022-09-29T19:01:00;5.85;;;3.03;;
60851;SDS011;48553;50.766;2.900;2022-09-29T19:04:01;5.43;;;2.83;;
60851;SDS011;48553;50.766;2.900;2022-09-29T19:07:02;4.97;;;2.75;;
60851;SDS011;48553;50.766;2.900;2022-09-29T19:13:09;4.35;;;2.75;;
60851;SDS011;48553;50.766;2.900;2022-09-29T19:16:15;6.30;;;3.10;;
60851;SDS011;48553;50.766;2.900;2022-09-29T19:19:16;4.88;;;2.90;;
60851;SDS011;48553;50.766;2.900;2022-09-29T19:22:16;5.38;;;2.88;;
60851;SDS011;48553;50.766;2.900;2022-09-29T19:25:19;4.60;;;2.85;;
60851;SDS011;48553;50.766;2.900;2022-09-29T19:28:24;5.18;;;2.78;;
60851;SDS011;48553;50.766;2.900;2022-09-29T19:31:26;5.28;;;2.80;;
60851;SDS011;48553;50.766;2.900;2022-09-29T19:34:26;3.88;;;2.63;;
60851;SDS011;48553;50.766;2.900;2022-09-29T19:37:30;4.38;;;2.72;;
60851;SDS011;48553;50.766;2.900;2022-09-29T19:40:31;5.13;;;2.78;;
60851;SDS011;48553;50.766;2.900;2022-09-29T19:43:36;4.10;;;2.30;;
60851;SDS011;48553;50.766;2.900;2022-09-29T19:46:36;6.43;;;2.80;;
60851;SDS011;48553;50.766;2.900;2022-09-29T19:49:37;5.13;;;2.53;;
60851;SDS011;48553;50.766;2.900;2022-09-29T19:52:37;4.47;;;2.53;;
60851;SDS011;48553;50.766;2.900;2022-09-29T19:55:38;5.10;;;2.60;;
60851;SDS011;48553;50.766;2.900;2022-09-29T19:58:39;5.47;;;2.22;;
60851;SDS011;48553;50.766;2.900;2022-09-29T20:01:43;3.97;;;2.20;;
60851;SDS011;48553;50.766;2.900;2022-09-29T20:04:44;4.45;;;2.45;;
60851;SDS011;48553;50.766;2.900;2022-09-29T20:07:45;4.22;;;2.15;;
60851;SDS011;48553;50.766;2.900;2022-09-29T20:10:45;3.40;;;2.03;;
60851;SDS011;48553;50.766;2.900;2022-09-29T20:13:46;3.28;;;2.17;;
60851;SDS011;48553;50.766;2.900;2022-09-29T20:16:46;5.32;;;2.05;;
60851;SDS011;48553;50.766;2.900;2022-09-29T20:19:47;4.47;;;2.20;;
60851;SDS011;48553;50.766;2.900;2022-09-29T20:22:48;3.47;;;2.17;;
60851;SDS011;48553;50.766;2.900;2022-09-29T20:25:56;6.47;;;2.45;;
60851;SDS011;48553;50.766;2.900;2022-09-29T20:29:00;4.50;;;2.38;;
60851;SDS011;48553;50.766;2.900;2022-09-29T20:32:01;4.20;;;2.20;;
60851;SDS011;48553;50.766;2.900;2022-09-29T20:35:01;4.72;;;2.28;;
60851;SDS011;48553;50.766;2.900;2022-09-29T20:38:02;5.00;;;2.25;;
60851;SDS011;48553;50.766;2.900;2022-09-29T20:41:02;3.55;;;2.10;;
60851;SDS011;48553;50.766;2.900;2022-09-29T20:44:03;3.25;;;2.03;;
60851;SDS011;48553;50.766;2.900;2022-09-29T20:47:04;4.70;;;2.30;;
60851;SDS011;48553;50.766;2.900;2022-09-29T20:50:05;4.90;;;2.30;;
60851;SDS011;48553;50.766;2.900;2022-09-29T20:53:05;3.60;;;2.17;;
60851;SDS011;48553;50.766;2.900;2022-09-29T20:56:08;4.20;;;2.03;;
60851;SDS011;48553;50.766;2.900;2022-09-29T20:59:11;3.58;;;2.10;;
60851;SDS011;48553;50.766;2.900;2022-09-29T21:02:15;3.10;;;1.70;;
60851;SDS011;48553;50.766;2.900;2022-09-29T21:05:16;2.95;;;1.85;;
60851;SDS011;48553;50.766;2.900;2022-09-29T21:08:16;2.85;;;1.90;;
60851;SDS011;48553;50.766;2.900;2022-09-29T21:11:17;3.30;;;1.90;;
60851;SDS011;48553;50.766;2.900;2022-09-29T21:14:18;3.63;;;2.05;;
60851;SDS011;48553;50.766;2.900;2022-09-29T21:20:23;2.65;;;1.80;;
60851;SDS011;48553;50.766;2.900;2022-09-29T21:23:24;3.47;;;1.80;;